CCM26F LFML-LFKJ
Flight info
| Callsign | CCM26F |
|---|---|
| Flight time | N/A |
| Altitude | 23000 |
| Route | TINOT Z154 RUBAS |
| Aircraft | A320/M-SDE3FGHIRWY/LB1 |
Departure
| Time | N/A |
|---|---|
| Airport | Marseille Provence Airport (LFML) |
Arrival
| Time | 2026-05-03 20:20 |
|---|---|
| Airport | Ajaccio Napoléon Bonaparte airport (LFKJ) |
| Time | Latitude | Longitude | Altitude | Speed | Heading |
|---|---|---|---|---|---|
| 2026-05-03 20:15 | 41.74653 | 8.69216 | 3560 ft | 156 kts | 26° |
| 2026-05-03 20:15 | 41.75625 | 8.69823 | 3370 ft | 154 kts | 26° |
| 2026-05-03 20:15 | 41.76578 | 8.70415 | 3175 ft | 153 kts | 27° |
| 2026-05-03 20:15 | 41.77540 | 8.71012 | 2970 ft | 152 kts | 27° |
| 2026-05-03 20:16 | 41.78498 | 8.71607 | 2768 ft | 151 kts | 27° |
| 2026-05-03 20:16 | 41.79438 | 8.72189 | 2571 ft | 147 kts | 27° |
| 2026-05-03 20:16 | 41.80361 | 8.72762 | 2371 ft | 146 kts | 26° |
| 2026-05-03 20:16 | 41.81279 | 8.73332 | 2180 ft | 145 kts | 26° |
| 2026-05-03 20:17 | 41.82192 | 8.73899 | 1988 ft | 144 kts | 27° |
| 2026-05-03 20:17 | 41.83089 | 8.74456 | 1795 ft | 144 kts | 26° |
| 2026-05-03 20:17 | 41.83994 | 8.75018 | 1612 ft | 143 kts | 26° |
| 2026-05-03 20:17 | 41.84894 | 8.75578 | 1409 ft | 142 kts | 26° |
| 2026-05-03 20:18 | 41.85792 | 8.76136 | 1219 ft | 142 kts | 27° |
| 2026-05-03 20:18 | 41.86688 | 8.76693 | 1029 ft | 141 kts | 26° |
| 2026-05-03 20:18 | 41.87578 | 8.77246 | 833 ft | 140 kts | 27° |
| 2026-05-03 20:18 | 41.88458 | 8.77794 | 662 ft | 139 kts | 26° |
| 2026-05-03 20:19 | 41.89335 | 8.78340 | 481 ft | 138 kts | 25° |
| 2026-05-03 20:19 | 41.90203 | 8.78880 | 306 ft | 137 kts | 26° |
| 2026-05-03 20:19 | 41.91055 | 8.79410 | 123 ft | 136 kts | 26° |
| 2026-05-03 20:19 | 41.91892 | 8.79933 | 21 ft | 118 kts | 25° |
| 2026-05-03 20:20 | 41.92365 | 8.80229 | 22 ft | 39 kts | 25° |
| 2026-05-03 20:20 | 41.92601 | 8.80374 | 22 ft | 35 kts | 22° |
| 2026-05-03 20:20 | 41.92758 | 8.80441 | 25 ft | 14 kts | 325° |
| 2026-05-03 20:20 | 41.92803 | 8.80337 | 22 ft | 12 kts | 297° |
| 2026-05-03 20:21 | 41.92830 | 8.80244 | 22 ft | 10 kts | 259° |
| 2026-05-03 20:21 | 41.92792 | 8.80180 | 22 ft | 9 kts | 220° |
| 2026-05-03 20:21 | 41.92710 | 8.80110 | 22 ft | 18 kts | 206° |
| 2026-05-03 20:21 | 41.92589 | 8.80036 | 24 ft | 20 kts | 204° |
| 2026-05-03 20:22 | 41.92462 | 8.79956 | 23 ft | 21 kts | 203° |
| 2026-05-03 20:22 | 41.92327 | 8.79872 | 21 ft | 22 kts | 205° |
| 2026-05-03 20:22 | 41.92190 | 8.79788 | 23 ft | 22 kts | 203° |
| 2026-05-03 20:22 | 41.92077 | 8.79718 | 21 ft | 18 kts | 205° |
| 2026-05-03 20:23 | 41.91957 | 8.79642 | 21 ft | 20 kts | 204° |
| 2026-05-03 20:23 | 41.91882 | 8.79563 | 21 ft | 11 kts | 282° |
| 2026-05-03 20:23 | 41.91907 | 8.79535 | 21 ft | 0 kts | 316° |
| 2026-05-03 20:23 | 41.91909 | 8.79532 | 21 ft | 1 kts | 312° |